createdAt,value
2019-01-21T00:00:55.836Z,85.39
2019-01-21T00:03:25.330Z,85.56
2019-01-21T00:05:54.734Z,85.21
2019-01-21T00:08:24.158Z,85.44
2019-01-21T00:10:53.607Z,85.49
2019-01-21T00:13:22.657Z,85.25
2019-01-21T00:15:51.754Z,85.52
2019-01-21T00:18:21.308Z,85.60
2019-01-21T00:20:50.530Z,85.71
2019-01-21T00:23:19.595Z,85.83
2019-01-21T00:25:49.327Z,85.82
2019-01-21T00:28:19.197Z,85.96
2019-01-21T00:30:49.087Z,86.13
2019-01-21T00:33:18.099Z,86.48
2019-01-21T00:35:47.281Z,86.49
2019-01-21T00:38:16.264Z,86.20
2019-01-21T00:40:45.351Z,86.20
2019-01-21T00:43:14.399Z,86.04
2019-01-21T00:45:43.444Z,85.99
2019-01-21T00:48:12.478Z,86.10
2019-01-21T00:50:41.523Z,85.98
2019-01-21T00:53:10.550Z,86.30
2019-01-21T00:55:39.579Z,86.78
2019-01-21T00:58:08.617Z,87.02
2019-01-21T01:00:37.834Z,86.54
2019-01-21T01:03:06.991Z,86.34
2019-01-21T01:05:36.063Z,86.11
2019-01-21T01:08:05.673Z,86.33
2019-01-21T01:10:34.793Z,86.75
2019-01-21T01:13:03.815Z,85.57
2019-01-21T01:15:33.396Z,86.28
2019-01-21T01:18:02.507Z,86.15
2019-01-21T01:20:31.573Z,85.97
2019-01-21T01:23:00.683Z,85.71
2019-01-21T01:25:29.643Z,85.92
2019-01-21T01:27:58.715Z,86.14
2019-01-21T01:30:28.107Z,86.50
2019-01-21T01:32:57.849Z,86.70
2019-01-21T01:35:26.922Z,86.81
2019-01-21T01:37:55.951Z,86.99
2019-01-21T01:40:24.997Z,86.94
2019-01-21T01:42:54.106Z,87.09
2019-01-21T01:45:30.887Z,87.09
2019-01-21T01:48:01.874Z,86.87
2019-01-21T01:50:31.007Z,87.25
2019-01-21T01:53:00.543Z,87.41
2019-01-21T01:55:33.271Z,87.33
2019-01-21T01:58:04.151Z,87.61
2019-01-21T02:00:33.301Z,88.26
2019-01-21T02:03:02.391Z,87.87
2019-01-21T02:05:31.557Z,87.58
2019-01-21T02:08:00.607Z,87.60
2019-01-21T02:10:30.019Z,87.54
2019-01-21T02:12:59.353Z,87.78
2019-01-21T02:15:28.361Z,87.78
2019-01-21T02:17:57.423Z,87.71
2019-01-21T02:20:26.462Z,87.45
2019-01-21T02:22:58.999Z,87.36
2019-01-21T02:25:51.520Z,87.46
2019-01-21T02:28:50.815Z,87.10
2019-01-21T02:31:56.385Z,87.32
2019-01-21T02:34:52.575Z,87.52
2019-01-21T02:37:56.643Z,87.42
2019-01-21T02:40:46.983Z,87.33
2019-01-21T02:44:14.489Z,87.59
2019-01-21T02:47:18.399Z,87.40
2019-01-21T02:50:12.449Z,87.79
2019-01-21T02:52:51.067Z,88.27
2019-01-21T02:55:50.043Z,87.85
2019-01-21T02:59:18.141Z,87.68
2019-01-21T03:02:18.469Z,88.01
2019-01-21T03:05:50.048Z,88.07
2019-01-21T03:08:41.038Z,88.47
2019-01-21T03:11:40.755Z,88.23
2019-01-21T03:14:49.033Z,88.03
2019-01-21T03:17:44.091Z,88.09
2019-01-21T03:20:43.332Z,87.86
2019-01-21T03:24:08.102Z,88.34
2019-01-21T03:27:06.455Z,88.21
2019-01-21T03:30:14.366Z,88.50
2019-01-21T03:33:28.115Z,88.46
2019-01-21T03:36:16.611Z,88.62
2019-01-21T03:39:11.304Z,88.87
2019-01-21T03:42:07.745Z,89.18
2019-01-21T03:45:16.868Z,88.95
2019-01-21T03:48:05.838Z,88.16
2019-01-21T03:51:08.671Z,88.12
2019-01-21T03:54:04.680Z,88.65
2019-01-21T03:56:50.921Z,88.29
2019-01-21T03:59:42.458Z,88.06
2019-01-21T04:02:52.121Z,87.87
2019-01-21T04:05:32.665Z,87.83
2019-01-21T04:08:33.695Z,88.16
2019-01-21T04:11:35.479Z,88.58
2019-01-21T04:14:49.667Z,88.75
2019-01-21T04:18:15.257Z,88.74
2019-01-21T04:21:30.637Z,88.20
2019-01-21T04:24:37.384Z,88.21
2019-01-21T04:27:19.687Z,88.15
2019-01-21T04:30:09.598Z,87.86
2019-01-21T04:33:28.911Z,87.93
2019-01-21T04:36:35.550Z,88.00
2019-01-21T04:39:19.933Z,88.10
2019-01-21T04:42:28.581Z,88.25
2019-01-21T04:45:28.765Z,88.32
2019-01-21T04:48:06.771Z,88.36
2019-01-21T04:51:18.881Z,88.40
2019-01-21T04:54:28.519Z,88.41
2019-01-21T04:57:38.717Z,87.93
2019-01-21T05:00:18.841Z,88.42
2019-01-21T05:03:44.226Z,88.04
2019-01-21T05:06:38.296Z,87.83
2019-01-21T05:10:00.225Z,87.96
2019-01-21T05:12:41.357Z,88.52
2019-01-21T05:15:38.021Z,88.48
2019-01-21T05:19:00.533Z,88.47
2019-01-21T05:22:02.623Z,88.12
2019-01-21T05:25:28.417Z,88.62
2019-01-21T05:29:00.321Z,88.24
2019-01-21T05:31:57.034Z,88.30
2019-01-21T05:34:52.540Z,88.54
2019-01-21T05:37:39.158Z,88.79
2019-01-21T05:40:35.171Z,89.42
2019-01-21T05:43:50.175Z,89.05
2019-01-21T05:46:59.009Z,88.99
2019-01-21T05:50:11.795Z,88.92
2019-01-21T05:53:01.639Z,88.94
2019-01-21T05:55:51.461Z,88.85
2019-01-21T05:58:49.126Z,88.86
2019-01-21T06:01:48.554Z,89.13
2019-01-21T06:04:48.801Z,88.96
2019-01-21T06:08:08.454Z,88.63
2019-01-21T06:11:18.879Z,88.50
2019-01-21T06:14:40.108Z,88.74
2019-01-21T06:17:34.408Z,88.56
2019-01-21T06:20:28.481Z,88.81
2019-01-21T06:23:40.576Z,88.83
2019-01-21T06:26:57.153Z,88.85
2019-01-21T06:30:08.606Z,88.66
2019-01-21T06:33:30.780Z,88.70
2019-01-21T06:36:44.012Z,89.06
2019-01-21T06:39:36.728Z,88.92
2019-01-21T06:42:44.217Z,88.73
2019-01-21T06:45:57.705Z,88.96
2019-01-21T06:48:51.585Z,88.90
2019-01-21T06:52:02.790Z,88.73
2019-01-21T06:54:49.025Z,88.47
2019-01-21T06:57:47.940Z,88.49
2019-01-21T07:00:55.255Z,88.50
2019-01-21T07:03:55.780Z,88.41
2019-01-21T07:07:21.331Z,88.28
2019-01-21T07:10:28.801Z,88.45
2019-01-21T07:13:41.968Z,88.63
2019-01-21T07:16:48.867Z,88.95
2019-01-21T07:19:40.761Z,88.97
2019-01-21T07:22:31.066Z,89.05
2019-01-21T07:25:36.309Z,89.21
2019-01-21T07:28:14.240Z,89.00
2019-01-21T07:31:23.374Z,89.17
2019-01-21T07:34:18.482Z,89.26
2019-01-21T07:37:17.137Z,89.20
2019-01-21T07:40:19.311Z,88.95
2019-01-21T07:43:47.728Z,89.13
2019-01-21T07:46:58.009Z,88.71
2019-01-21T07:49:55.546Z,88.70
2019-01-21T07:53:03.478Z,88.88
2019-01-21T07:56:32.067Z,88.85
2019-01-21T07:59:51.192Z,88.68
2019-01-21T08:03:09.521Z,88.64
2019-01-21T08:06:11.509Z,88.50
2019-01-21T08:09:05.247Z,88.16
2019-01-21T08:11:57.033Z,88.41
2019-01-21T08:14:46.186Z,88.59
2019-01-21T08:17:56.053Z,88.65
2019-01-21T08:21:02.054Z,88.47
2019-01-21T08:24:14.415Z,88.44
2019-01-21T08:27:07.487Z,88.73
2019-01-21T08:29:51.649Z,88.90
2019-01-21T08:32:47.844Z,89.00
2019-01-21T08:36:03.941Z,88.83
2019-01-21T08:39:17.961Z,88.09
2019-01-21T08:42:23.524Z,87.98
2019-01-21T08:45:10.917Z,87.82
2019-01-21T08:48:14.378Z,87.83
2019-01-21T08:51:24.664Z,88.85
2019-01-21T08:54:28.808Z,86.21
2019-01-21T08:57:34.298Z,79.42
2019-01-21T09:00:17.664Z,76.26
2019-01-21T09:03:28.442Z,71.59
2019-01-21T09:06:14.690Z,71.10
2019-01-21T09:09:19.539Z,70.43
2019-01-21T09:12:10.662Z,68.97
2019-01-21T09:15:18.898Z,67.27
2019-01-21T09:18:00.683Z,67.59
2019-01-21T09:21:02.502Z,66.03
2019-01-21T09:24:10.158Z,68.40
2019-01-21T09:27:15.104Z,66.31
2019-01-21T09:30:20.072Z,66.53
2019-01-21T09:33:30.703Z,65.56
2019-01-21T09:36:41.004Z,64.09
2019-01-21T09:39:54.032Z,63.03
2019-01-21T09:42:49.642Z,62.86
2019-01-21T09:46:02.388Z,64.13
2019-01-21T09:48:29.942Z,62.09
2019-01-21T09:51:04.140Z,61.96
2019-01-21T09:53:33.994Z,61.76
2019-01-21T09:56:03.734Z,61.42
2019-01-21T09:58:34.906Z,59.99
2019-01-21T10:01:04.360Z,56.29
2019-01-21T10:03:33.746Z,56.29
2019-01-21T10:06:10.299Z,56.71
2019-01-21T10:08:52.664Z,55.90
2019-01-21T10:12:06.476Z,55.60
2019-01-21T10:15:12.148Z,54.97
2019-01-21T10:18:10.414Z,55.26
2019-01-21T10:21:02.836Z,53.75
2019-01-21T10:24:13.594Z,53.23
2019-01-21T10:27:12.828Z,51.35
2019-01-21T10:30:24.915Z,50.21
2019-01-21T10:33:59.458Z,46.50
2019-01-21T10:37:18.237Z,45.02
2019-01-21T10:40:25.486Z,47.78
2019-01-21T10:43:42.045Z,46.46
2019-01-21T10:47:06.999Z,46.12
2019-01-21T10:50:08.287Z,45.62
2019-01-21T10:53:14.797Z,43.85
2019-01-21T10:56:25.305Z,43.35
2019-01-21T10:59:44.905Z,44.55
2019-01-21T11:03:03.261Z,43.14
2019-01-21T11:06:05.973Z,39.60
2019-01-21T11:08:59.297Z,40.13
2019-01-21T11:11:59.122Z,40.40
2019-01-21T11:14:51.256Z,39.56
2019-01-21T11:17:51.776Z,39.44
2019-01-21T11:21:01.313Z,38.73
2019-01-21T11:24:10.105Z,36.83
2019-01-21T11:27:06.268Z,36.01
2019-01-21T11:30:19.032Z,38.61
2019-01-21T11:33:33.289Z,38.89
2019-01-21T11:36:58.652Z,38.59
2019-01-21T11:40:09.495Z,36.27
2019-01-21T11:42:58.448Z,38.90
2019-01-21T11:46:05.752Z,39.30
2019-01-21T11:49:13.072Z,40.08
2019-01-21T11:52:17.697Z,36.94
2019-01-21T11:55:22.133Z,36.64
2019-01-21T11:58:38.708Z,35.14
2019-01-21T12:01:43.521Z,35.85
2019-01-21T12:04:34.454Z,36.94
2019-01-21T12:07:43.368Z,39.43
2019-01-21T12:10:38.987Z,37.13
2019-01-21T12:13:40.813Z,38.77
2019-01-21T12:16:55.736Z,38.60
2019-01-21T12:19:44.362Z,40.49
2019-01-21T12:22:58.280Z,39.45
2019-01-21T12:25:34.736Z,38.13
2019-01-21T12:28:39.918Z,39.23
2019-01-21T12:31:26.740Z,35.85
2019-01-21T12:34:17.222Z,39.30
2019-01-21T12:37:26.292Z,39.23
2019-01-21T12:40:28.814Z,41.40
2019-01-21T12:43:45.591Z,44.59
2019-01-21T12:46:47.930Z,46.02
2019-01-21T12:50:01.688Z,46.13
2019-01-21T12:52:49.304Z,46.54
2019-01-21T12:56:01.755Z,46.59
2019-01-21T12:58:41.614Z,46.04
2019-01-21T13:01:38.535Z,45.76
2019-01-21T13:04:48.760Z,47.56
2019-01-21T13:08:29.362Z,50.44
2019-01-21T13:11:19.415Z,50.40
2019-01-21T13:14:13.830Z,50.41
2019-01-21T13:17:23.391Z,49.50
2019-01-21T13:20:35.883Z,50.88
2019-01-21T13:23:45.229Z,50.65
2019-01-21T13:26:41.566Z,48.85
2019-01-21T13:29:35.398Z,47.02
2019-01-21T13:32:36.934Z,48.48
2019-01-21T13:35:29.303Z,49.47
2019-01-21T13:38:33.746Z,48.07
2019-01-21T13:41:20.914Z,49.80
2019-01-21T13:44:17.230Z,49.21
2019-01-21T13:47:24.557Z,48.42
2019-01-21T13:50:03.531Z,48.32
2019-01-21T13:53:15.996Z,50.86
2019-01-21T13:56:21.231Z,52.32
2019-01-21T13:59:21.571Z,52.92
2019-01-21T14:02:11.416Z,53.70
2019-01-21T14:05:24.276Z,52.90
2019-01-21T14:08:11.668Z,54.51
2019-01-21T14:11:45.228Z,54.46
2019-01-21T14:14:48.832Z,53.84
2019-01-21T14:18:15.292Z,53.79
2019-01-21T14:20:59.644Z,49.88
2019-01-21T14:24:12.471Z,47.71
2019-01-21T14:27:04.170Z,49.49
2019-01-21T14:30:23.221Z,50.07
2019-01-21T14:33:27.372Z,51.11
2019-01-21T14:36:41.460Z,52.67
2019-01-21T14:39:39.534Z,51.77
2019-01-21T14:43:08.556Z,52.59
2019-01-21T14:45:58.276Z,53.00
2019-01-21T14:49:26.373Z,53.53
2019-01-21T14:52:35.747Z,52.53
2019-01-21T14:55:46.474Z,49.99
2019-01-21T14:59:11.876Z,49.99
2019-01-21T15:02:03.080Z,51.88
2019-01-21T15:05:02.380Z,51.96
2019-01-21T15:08:11.351Z,50.62
2019-01-21T15:11:24.941Z,51.14
2019-01-21T15:14:18.208Z,53.41
2019-01-21T15:17:49.230Z,54.54
2019-01-21T15:20:31.760Z,56.12
2019-01-21T15:23:45.214Z,58.06
2019-01-21T15:26:42.801Z,58.80
2019-01-21T15:29:48.793Z,59.55
2019-01-21T15:32:58.732Z,61.00
2019-01-21T15:36:09.874Z,61.92
2019-01-21T15:39:19.791Z,61.94
2019-01-21T15:42:25.501Z,62.64
2019-01-21T15:45:26.743Z,62.99
2019-01-21T15:48:28.339Z,63.77
2019-01-21T15:51:50.545Z,63.91
2019-01-21T15:54:35.211Z,64.56
2019-01-21T15:57:35.265Z,64.81
2019-01-21T16:00:41.144Z,64.11
2019-01-21T16:03:52.951Z,63.77
2019-01-21T16:06:57.419Z,64.62
2019-01-21T16:09:46.318Z,64.56
2019-01-21T16:12:43.148Z,64.42
2019-01-21T16:15:56.044Z,64.64
2019-01-21T16:18:35.263Z,64.15
2019-01-21T16:21:39.933Z,65.48
2019-01-21T16:24:49.028Z,64.70
2019-01-21T16:27:31.223Z,64.79
2019-01-21T16:30:06.601Z,65.95
2019-01-21T16:33:21.109Z,65.97
2019-01-21T16:36:31.224Z,67.03
2019-01-21T16:39:10.960Z,67.43
2019-01-21T16:42:13.717Z,68.40
2019-01-21T16:44:43.662Z,68.88
2019-01-21T16:47:12.713Z,69.22
2019-01-21T16:49:41.806Z,69.49
2019-01-21T16:52:11.150Z,69.72
2019-01-21T16:54:40.493Z,70.71
2019-01-21T16:57:09.876Z,70.32
2019-01-21T16:59:39.081Z,70.65
2019-01-21T17:02:08.277Z,71.33
2019-01-21T17:04:37.370Z,71.97
2019-01-21T17:07:06.707Z,72.25
2019-01-21T17:09:35.953Z,72.50
2019-01-21T17:12:05.400Z,72.87
2019-01-21T17:14:34.536Z,72.32
2019-01-21T17:17:03.926Z,71.70
2019-01-21T17:19:33.252Z,71.39
2019-01-21T17:22:02.319Z,71.18
2019-01-21T17:24:31.678Z,71.33
2019-01-21T17:27:00.730Z,70.87
2019-01-21T17:29:29.808Z,71.48
2019-01-21T17:31:58.870Z,71.89
2019-01-21T17:34:27.949Z,72.30
2019-01-21T17:36:57.000Z,72.70
2019-01-21T17:39:26.044Z,72.72
2019-01-21T17:41:55.090Z,72.60
2019-01-21T17:44:24.119Z,73.08
2019-01-21T17:46:53.463Z,73.69
2019-01-21T17:49:22.808Z,74.27
2019-01-21T17:51:51.947Z,75.21
2019-01-21T17:54:20.964Z,75.65
2019-01-21T17:56:50.068Z,75.77
2019-01-21T17:59:19.096Z,75.38
2019-01-21T18:01:48.394Z,75.45
2019-01-21T18:04:17.541Z,75.35
2019-01-21T18:06:46.672Z,75.31
2019-01-21T18:09:15.715Z,75.13
2019-01-21T18:11:44.812Z,75.41
2019-01-21T18:14:13.978Z,75.69
2019-01-21T18:16:43.044Z,75.67
2019-01-21T18:19:13.596Z,76.14
2019-01-21T18:21:43.103Z,76.18
2019-01-21T18:24:12.176Z,76.81
2019-01-21T18:26:41.501Z,77.99
2019-01-21T18:29:10.800Z,79.38
2019-01-21T18:31:39.853Z,80.20
2019-01-21T18:34:08.861Z,80.83
2019-01-21T18:36:38.254Z,81.25
2019-01-21T18:39:11.699Z,81.74
2019-01-21T18:41:40.766Z,81.84
2019-01-21T18:44:09.860Z,82.21
2019-01-21T18:46:38.921Z,82.26
2019-01-21T18:49:07.980Z,82.48
2019-01-21T18:51:37.075Z,82.42
2019-01-21T18:54:06.127Z,82.49
2019-01-21T18:56:35.931Z,83.18
2019-01-21T18:59:05.165Z,83.09
2019-01-21T19:01:34.557Z,83.35
2019-01-21T19:04:03.697Z,84.26
2019-01-21T19:06:32.751Z,83.07
2019-01-21T19:09:02.465Z,82.21
2019-01-21T19:11:31.513Z,81.17
2019-01-21T19:14:00.534Z,80.26
2019-01-21T19:16:29.945Z,79.67
2019-01-21T19:18:58.995Z,79.34
2019-01-21T19:21:28.090Z,79.37
2019-01-21T19:23:57.572Z,78.91
2019-01-21T19:26:26.590Z,78.85
2019-01-21T19:28:55.612Z,78.84
2019-01-21T19:31:24.672Z,78.83
2019-01-21T19:33:54.200Z,79.24
2019-01-21T19:36:23.284Z,79.36
2019-01-21T19:38:52.644Z,79.24
2019-01-21T19:41:21.690Z,78.92
2019-01-21T19:43:50.802Z,79.54
2019-01-21T19:46:19.860Z,79.18
2019-01-21T19:48:49.302Z,78.98
2019-01-21T19:51:18.639Z,79.26
2019-01-21T19:53:47.687Z,79.33
2019-01-21T19:56:17.030Z,79.61
2019-01-21T19:58:46.143Z,79.72
2019-01-21T20:01:15.201Z,79.82
2019-01-21T20:03:44.296Z,80.46
2019-01-21T20:06:13.316Z,80.23
2019-01-21T20:08:42.692Z,80.36
2019-01-21T20:11:11.742Z,79.86
2019-01-21T20:13:40.901Z,80.05
2019-01-21T20:16:10.247Z,79.70
2019-01-21T20:18:39.308Z,79.48
2019-01-21T20:21:08.322Z,79.26
2019-01-21T20:23:37.603Z,79.32
2019-01-21T20:26:06.618Z,79.06
2019-01-21T20:28:35.942Z,79.50
2019-01-21T20:31:05.802Z,79.96
2019-01-21T20:33:35.201Z,80.34
2019-01-21T20:36:04.361Z,80.64
2019-01-21T20:38:33.413Z,80.96
2019-01-21T20:41:02.524Z,80.55
2019-01-21T20:43:32.135Z,80.55
2019-01-21T20:46:01.233Z,80.74
2019-01-21T20:48:30.290Z,80.90
2019-01-21T20:50:59.529Z,80.69
2019-01-21T20:53:28.842Z,81.00
2019-01-21T20:55:58.171Z,81.10
2019-01-21T20:58:27.558Z,80.78
2019-01-21T21:00:56.613Z,81.38
2019-01-21T21:03:25.854Z,81.52
2019-01-21T21:05:55.244Z,82.00
2019-01-21T21:08:24.639Z,82.30
2019-01-21T21:10:54.482Z,82.01
2019-01-21T21:13:24.069Z,81.96
2019-01-21T21:15:54.430Z,82.20
2019-01-21T21:18:23.770Z,81.36
2019-01-21T21:20:53.057Z,81.27
2019-01-21T21:23:22.721Z,81.41
2019-01-21T21:25:52.263Z,81.64
2019-01-21T21:28:21.490Z,81.34
2019-01-21T21:30:50.875Z,81.28
2019-01-21T21:33:20.051Z,81.45
2019-01-21T21:35:50.017Z,81.46
2019-01-21T21:38:19.192Z,81.84
2019-01-21T21:40:48.533Z,82.43
2019-01-21T21:43:17.978Z,82.60
2019-01-21T21:45:47.106Z,82.60
2019-01-21T21:48:16.587Z,82.49
2019-01-21T21:50:45.743Z,82.47
2019-01-21T21:53:14.971Z,82.65
2019-01-21T21:55:44.167Z,82.62
2019-01-21T21:58:14.587Z,82.79
2019-01-21T22:00:43.772Z,82.87
2019-01-21T22:03:12.954Z,83.32
2019-01-21T22:05:42.560Z,83.48
2019-01-21T22:08:11.749Z,83.68
2019-01-21T22:10:40.987Z,83.36
2019-01-21T22:13:10.618Z,84.16
2019-01-21T22:15:39.781Z,83.75
2019-01-21T22:18:08.944Z,83.75
2019-01-21T22:20:38.422Z,83.72
2019-01-21T22:23:07.729Z,83.42
2019-01-21T22:25:37.225Z,82.79
2019-01-21T22:28:06.505Z,82.59
2019-01-21T22:30:35.592Z,82.47
2019-01-21T22:33:04.703Z,82.32
2019-01-21T22:35:34.389Z,83.16
2019-01-21T22:38:04.269Z,82.87
2019-01-21T22:40:33.679Z,82.46
2019-01-21T22:43:03.106Z,82.99
2019-01-21T22:45:32.742Z,83.33
2019-01-21T22:48:01.853Z,83.01
2019-01-21T22:50:30.879Z,83.07
2019-01-21T22:53:00.269Z,83.03
2019-01-21T22:55:29.295Z,82.97
2019-01-21T22:57:58.365Z,82.38
2019-01-21T23:00:53.125Z,82.58
2019-01-21T23:03:22.653Z,82.65
2019-01-21T23:05:51.659Z,82.66
2019-01-21T23:08:21.064Z,82.53
2019-01-21T23:10:50.231Z,82.08
2019-01-21T23:13:19.327Z,82.11
2019-01-21T23:15:48.445Z,82.33
2019-01-21T23:18:17.851Z,82.17
2019-01-21T23:20:46.915Z,81.93
2019-01-21T23:23:16.055Z,81.79
2019-01-21T23:25:45.060Z,82.25
2019-01-21T23:28:14.105Z,82.18
2019-01-21T23:30:43.148Z,81.72
2019-01-21T23:33:12.477Z,81.09
2019-01-21T23:35:41.571Z,81.23
2019-01-21T23:38:11.073Z,81.31
2019-01-21T23:40:40.086Z,81.30
2019-01-21T23:43:09.429Z,81.66
2019-01-21T23:45:38.425Z,81.86
2019-01-21T23:48:07.854Z,82.05
2019-01-21T23:50:37.165Z,81.45
2019-01-21T23:53:06.241Z,81.33
2019-01-21T23:55:35.576Z,81.47
2019-01-21T23:58:04.819Z,81.39
